Terminal Aerodrome Forecast
Issued by NWS Charleston, WV

Current Version | Previous Version | Text Only | Print | Product List | Glossary Off
Versions: 1 2 3 4 5 6 7 8 9 10 11 12 13 14 15 16 17 18 19 20 21 22 23 24 25 26

000
FTUS41 KRLX 311100
TAFCRW
TAF
KCRW 311120Z 3112/0112 20008KT P6SM SCT120
     FM311500 22012G20KT P6SM SCT100
     FM311900 25017G30KT P6SM BKN070
     FM312200 29016G29KT P6SM BKN050
     FM312300 31014G23KT P6SM SCT050
     FM010200 34009KT P6SM SCT035=

USA.gov is the U.S. government's official web portal to all federal, state and local government web resources and services.